Terminal Aerodrome Forecast
Issued by NWS Sioux Falls, SD

Home | Current Version | Previous Version | Text Only | Print | Product List | Glossary On
Versions: 1 2 3 4 5 6 7 8 9 10 11 12 13 14
000
FTUS43 KFSD 230520
TAFHON
TAF
KHON 230520Z 2306/2406 33007KT P6SM BKN050
     FM231100 33009KT P6SM OVC030
     FM231400 34013KT P6SM OVC025
     FM231600 34015G24KT P6SM OVC030
     FM231800 35016G24KT P6SM OVC040
     FM240300 35007KT P6SM BKN050
     FM240500 34007KT P6SM SCT060=

USA.gov is the U.S. government's official web portal to all federal, state and local government web resources and services.